createdAt,value
2018-05-13T00:00:40.802Z,94802.13
2018-05-13T00:03:07.283Z,94820.13
2018-05-13T00:05:33.678Z,94821.83
2018-05-13T00:08:00.048Z,94824.41
2018-05-13T00:10:26.477Z,94820.44
2018-05-13T00:12:52.835Z,94829.95
2018-05-13T00:15:19.198Z,94829.34
2018-05-13T00:17:45.575Z,94831.92
2018-05-13T00:20:11.976Z,94835.45
2018-05-13T00:22:38.402Z,94837.67
2018-05-13T00:25:04.805Z,94841.87
2018-05-13T00:27:31.201Z,94846.12
2018-05-13T00:29:57.571Z,94836.75
2018-05-13T00:32:23.962Z,94837.35
2018-05-13T00:34:50.361Z,94850.04
2018-05-13T00:37:16.783Z,94838.69
2018-05-13T00:39:43.226Z,94846.64
2018-05-13T00:42:09.602Z,94829.70
2018-05-13T00:44:35.974Z,94829.16
2018-05-13T00:47:02.387Z,94834.66
2018-05-13T00:49:28.743Z,94845.22
2018-05-13T00:51:55.107Z,94849.24
2018-05-13T00:54:21.507Z,94840.47
2018-05-13T00:56:47.876Z,94838.55
2018-05-13T00:59:14.251Z,94840.94
2018-05-13T01:01:40.703Z,94849.41
2018-05-13T01:04:07.119Z,94844.86
2018-05-13T01:06:33.487Z,94842.69
2018-05-13T01:08:59.893Z,94833.27
2018-05-13T01:11:26.277Z,94833.87
2018-05-13T01:13:52.647Z,94825.63
2018-05-13T01:16:19.018Z,94818.58
2018-05-13T01:18:45.399Z,94831.78
2018-05-13T01:21:11.862Z,94848.25
2018-05-13T01:23:38.263Z,94839.59
2018-05-13T01:26:04.659Z,94838.69
2018-05-13T01:28:31.068Z,94839.43
2018-05-13T01:30:57.454Z,94831.08
2018-05-13T01:33:23.840Z,94833.64
2018-05-13T01:35:50.194Z,94833.81
2018-05-13T01:38:16.577Z,94834.58
2018-05-13T01:40:42.942Z,94828.28
2018-05-13T01:43:09.312Z,94828.91
2018-05-13T01:45:35.670Z,94826.93
2018-05-13T01:48:02.057Z,94827.23
2018-05-13T01:50:28.436Z,94826.22
2018-05-13T01:52:54.884Z,94817.23
2018-05-13T01:55:21.291Z,94819.61
2018-05-13T01:57:47.717Z,94821.20
2018-05-13T02:00:14.254Z,94817.81
2018-05-13T02:02:40.936Z,94814.80
2018-05-13T02:05:07.494Z,94819.64
2018-05-13T02:07:33.872Z,94827.78
2018-05-13T02:10:00.354Z,94823.78
2018-05-13T02:12:26.893Z,94820.00
2018-05-13T02:14:53.366Z,94819.25
2018-05-13T02:17:19.792Z,94823.56
2018-05-13T02:19:46.195Z,94819.88
2018-05-13T02:22:12.635Z,94817.72
2018-05-13T02:24:39.059Z,94824.84
2018-05-13T02:27:05.459Z,94816.32
2018-05-13T02:29:31.802Z,94819.77
2018-05-13T02:31:58.225Z,94819.47
2018-05-13T02:34:24.707Z,94809.72
2018-05-13T02:36:51.094Z,94815.98
2018-05-13T02:39:17.530Z,94813.94
2018-05-13T02:41:43.906Z,94812.88
2018-05-13T02:44:10.506Z,94814.81
2018-05-13T02:46:36.893Z,94823.00
2018-05-13T02:49:03.241Z,94822.54
2018-05-13T02:51:29.612Z,94813.72
2018-05-13T02:53:55.977Z,94815.28
2018-05-13T02:56:22.425Z,94814.20
2018-05-13T02:58:48.796Z,94816.53
2018-05-13T03:01:15.144Z,94821.52
2018-05-13T03:03:41.650Z,94803.13
2018-05-13T03:06:08.024Z,94804.73
2018-05-13T03:08:34.436Z,94808.34
2018-05-13T03:11:00.798Z,94809.52
2018-05-13T03:13:27.197Z,94807.77
2018-05-13T03:15:53.552Z,94806.59
2018-05-13T03:18:19.875Z,94804.69
2018-05-13T03:20:46.298Z,94802.01
2018-05-13T03:23:12.756Z,94795.92
2018-05-13T03:25:39.082Z,94811.17
2018-05-13T03:28:05.446Z,94814.94
2018-05-13T03:30:31.859Z,94807.45
2018-05-13T03:32:59.250Z,94807.04
2018-05-13T03:35:25.739Z,94814.00
2018-05-13T03:37:52.096Z,94811.06
2018-05-13T03:40:18.433Z,94811.06
2018-05-13T03:42:44.849Z,94798.61
2018-05-13T03:45:11.276Z,94804.18
2018-05-13T03:47:37.718Z,94810.16
2018-05-13T03:50:04.064Z,94811.49
2018-05-13T03:52:30.462Z,94807.80
2018-05-13T03:54:56.868Z,94814.18
2018-05-13T03:57:23.299Z,94805.17
2018-05-13T03:59:49.709Z,94805.34
2018-05-13T04:02:16.066Z,94801.99
2018-05-13T04:04:42.597Z,94802.33
2018-05-13T04:07:08.965Z,94797.56
2018-05-13T04:09:35.524Z,94799.48
2018-05-13T04:12:01.946Z,94794.85
2018-05-13T04:14:28.328Z,94803.53
2018-05-13T04:16:54.752Z,94806.94
2018-05-13T04:19:21.065Z,94801.38
2018-05-13T04:21:47.500Z,94806.85
2018-05-13T04:24:13.960Z,94801.13
2018-05-13T04:26:40.458Z,94804.66
2018-05-13T04:29:06.803Z,94793.45
2018-05-13T04:31:33.173Z,94793.36
2018-05-13T04:33:59.510Z,94792.59
2018-05-13T04:36:25.945Z,94797.36
2018-05-13T04:38:52.271Z,94794.42
2018-05-13T04:41:18.604Z,94790.91
2018-05-13T04:43:45.051Z,94800.14
2018-05-13T04:46:11.410Z,94796.28
2018-05-13T04:48:37.768Z,94809.07
2018-05-13T04:51:04.112Z,94800.72
2018-05-13T04:53:30.575Z,94791.73
2018-05-13T04:55:56.946Z,94803.13
2018-05-13T04:58:23.348Z,94799.53
2018-05-13T05:00:49.756Z,94794.98
2018-05-13T05:03:16.078Z,94797.42
2018-05-13T05:05:42.437Z,94794.63
2018-05-13T05:08:08.865Z,94795.14
2018-05-13T05:10:35.240Z,94793.34
2018-05-13T05:13:01.585Z,94787.83
2018-05-13T05:15:27.907Z,94793.96
2018-05-13T05:17:54.261Z,94799.41
2018-05-13T05:20:20.800Z,94789.47
2018-05-13T05:22:47.183Z,94792.34
2018-05-13T05:25:13.596Z,94796.63
2018-05-13T05:27:39.975Z,94793.17
2018-05-13T05:30:06.450Z,94797.09
2018-05-13T05:32:32.838Z,94802.81
2018-05-13T05:34:59.184Z,94799.00
2018-05-13T05:37:25.505Z,94799.47
2018-05-13T05:39:51.837Z,94788.70
2018-05-13T05:42:18.218Z,94794.52
2018-05-13T05:44:44.555Z,94797.50
2018-05-13T05:47:11.025Z,94796.48
2018-05-13T05:49:37.377Z,94803.64
2018-05-13T05:52:03.756Z,94801.64
2018-05-13T05:54:30.251Z,94803.81
2018-05-13T05:59:29.042Z,94801.59
2018-05-13T06:01:55.412Z,94803.04
2018-05-13T06:04:21.753Z,94797.56
2018-05-13T06:06:48.111Z,94794.02
2018-05-13T06:09:14.444Z,94786.39
2018-05-13T06:11:40.853Z,94794.63
2018-05-13T06:14:07.234Z,94783.87
2018-05-13T06:16:33.553Z,94794.16
2018-05-13T06:18:59.889Z,94794.63
2018-05-13T06:21:26.345Z,94795.91
2018-05-13T06:23:52.722Z,94804.16
2018-05-13T06:26:19.082Z,94797.30
2018-05-13T06:28:45.415Z,94787.00
2018-05-13T06:31:11.960Z,94785.19
2018-05-13T06:33:38.371Z,94782.68
2018-05-13T06:36:04.780Z,94780.81
2018-05-13T06:38:31.127Z,94778.03
2018-05-13T06:40:57.496Z,94776.14
2018-05-13T06:43:23.830Z,94774.69
2018-05-13T06:45:50.160Z,94770.92
2018-05-13T06:48:16.492Z,94768.86
2018-05-13T06:50:42.927Z,94767.78
2018-05-13T06:53:09.248Z,94778.05
2018-05-13T06:55:35.681Z,94774.22
2018-05-13T06:58:02.044Z,94776.80
2018-05-13T07:00:28.420Z,94778.30
2018-05-13T07:02:54.908Z,94771.38
2018-05-13T07:05:21.216Z,94768.86
2018-05-13T07:07:47.549Z,94770.92
2018-05-13T07:10:13.900Z,94769.62
2018-05-13T07:12:40.301Z,94755.30
2018-05-13T07:15:06.747Z,94764.16
2018-05-13T07:17:33.108Z,94758.29
2018-05-13T07:19:59.608Z,94754.89
2018-05-13T07:22:25.965Z,94752.87
2018-05-13T07:24:52.300Z,94760.03
2018-05-13T07:27:18.700Z,94751.06
2018-05-13T07:29:45.177Z,94746.47
2018-05-13T07:32:11.708Z,94663.02
2018-05-13T07:34:38.188Z,94732.80
2018-05-13T07:37:04.694Z,94744.09
2018-05-13T07:39:31.020Z,94754.36
2018-05-13T07:41:57.590Z,94749.14
2018-05-13T07:44:23.964Z,94740.20
2018-05-13T07:46:50.352Z,94754.12
2018-05-13T07:49:16.755Z,94738.35
2018-05-13T07:51:43.152Z,94732.46
2018-05-13T07:54:09.516Z,94731.44
2018-05-13T07:56:35.948Z,94734.70
2018-05-13T07:59:02.292Z,94728.39
2018-05-13T08:01:28.630Z,94714.70
2018-05-13T08:03:55.060Z,94725.08
2018-05-13T08:06:21.451Z,94706.72
2018-05-13T08:08:47.821Z,94719.13
2018-05-13T08:11:14.144Z,94718.80
2018-05-13T08:13:40.570Z,94706.89
2018-05-13T08:16:07.128Z,94711.61
2018-05-13T08:18:33.465Z,94706.21
2018-05-13T08:20:59.852Z,94696.59
2018-05-13T08:23:26.256Z,94708.58
2018-05-13T08:25:52.713Z,94698.31
2018-05-13T08:28:19.042Z,94698.31
2018-05-13T08:30:45.568Z,94703.75
2018-05-13T08:33:11.907Z,94692.73
2018-05-13T08:35:38.312Z,94687.58
2018-05-13T08:38:04.688Z,94675.28
2018-05-13T08:40:31.137Z,94675.36
2018-05-13T08:42:57.621Z,94679.22
2018-05-13T08:45:24.050Z,94684.40
2018-05-13T08:47:50.405Z,94678.55
2018-05-13T08:50:16.900Z,94673.86
2018-05-13T08:52:43.252Z,94660.09
2018-05-13T08:55:09.651Z,94658.58
2018-05-13T08:57:36.037Z,94654.63
2018-05-13T09:00:02.414Z,94654.69
2018-05-13T09:02:28.845Z,94654.09
2018-05-13T09:04:55.267Z,94653.97
2018-05-13T09:07:21.737Z,94656.33
2018-05-13T09:09:48.105Z,94660.69
2018-05-13T09:12:14.481Z,94665.64
2018-05-13T09:14:40.947Z,94663.82
2018-05-13T09:17:07.369Z,94663.25
2018-05-13T09:19:33.764Z,94654.96
2018-05-13T09:22:00.152Z,94641.39
2018-05-13T09:24:26.574Z,94658.37
2018-05-13T09:26:52.988Z,94636.50
2018-05-13T09:29:19.336Z,94654.51
2018-05-13T09:31:45.821Z,94649.53
2018-05-13T09:34:12.261Z,94635.59
2018-05-13T09:36:38.611Z,94635.95
2018-05-13T09:39:05.013Z,94641.59
2018-05-13T09:41:31.358Z,94642.52
2018-05-13T09:43:57.717Z,94631.93
2018-05-13T09:46:24.049Z,94643.94
2018-05-13T09:48:50.379Z,94618.02
2018-05-13T09:51:16.751Z,94645.33
2018-05-13T09:53:43.089Z,94640.45
2018-05-13T09:56:09.469Z,94636.52
2018-05-13T09:58:35.811Z,94632.64
2018-05-13T10:01:02.172Z,94631.47
2018-05-13T10:03:28.497Z,94624.54
2018-05-13T10:05:54.861Z,94617.20
2018-05-13T10:08:21.227Z,94618.56
2018-05-13T10:10:47.580Z,94613.11
2018-05-13T10:13:13.967Z,94605.70
2018-05-13T10:15:40.386Z,94610.63
2018-05-13T10:18:06.753Z,94607.29
2018-05-13T10:20:33.093Z,94610.95
2018-05-13T10:22:59.459Z,94606.66
2018-05-13T10:25:25.880Z,94595.73
2018-05-13T10:27:52.231Z,94590.69
2018-05-13T10:30:18.557Z,94570.50
2018-05-13T10:32:44.942Z,94579.19
2018-05-13T10:35:11.348Z,94576.70
2018-05-13T10:37:37.675Z,94561.33
2018-05-13T10:40:04.032Z,94568.17
2018-05-13T10:42:30.411Z,94557.80
2018-05-13T10:44:56.736Z,94542.18
2018-05-13T10:47:23.075Z,94553.65
2018-05-13T10:49:49.408Z,94530.88
2018-05-13T10:52:15.783Z,94549.68
2018-05-13T10:54:42.105Z,94545.14
2018-05-13T10:57:08.432Z,94557.43
2018-05-13T10:59:34.767Z,94561.72
2018-05-13T11:02:01.124Z,94562.47
2018-05-13T11:04:27.538Z,94567.36
2018-05-13T11:06:53.918Z,94559.66
2018-05-13T11:09:20.293Z,94563.07
2018-05-13T11:11:46.612Z,94564.67
2018-05-13T11:14:12.981Z,94563.61
2018-05-13T11:16:39.320Z,94554.06
2018-05-13T11:19:05.684Z,94557.88
2018-05-13T11:21:32.001Z,94545.70
2018-05-13T11:23:58.405Z,94543.06
2018-05-13T11:26:24.768Z,94530.46
2018-05-13T11:28:51.137Z,94513.52
2018-05-13T11:31:17.451Z,94511.55
2018-05-13T11:33:43.861Z,94509.66
2018-05-13T11:36:10.339Z,94510.39
2018-05-13T11:38:36.662Z,94521.00
2018-05-13T11:41:02.989Z,94518.17
2018-05-13T11:43:29.373Z,94528.63
2018-05-13T11:45:55.745Z,94547.91
2018-05-13T11:48:22.086Z,94543.19
2018-05-13T11:50:48.455Z,94552.58
2018-05-13T11:53:14.859Z,94567.67
2018-05-13T11:55:41.231Z,94597.38
2018-05-13T11:58:07.580Z,94627.54
2018-05-13T12:00:33.978Z,94654.89
2018-05-13T12:03:00.362Z,94660.33
2018-05-13T12:05:26.708Z,94659.10
2018-05-13T12:07:53.043Z,94657.81
2018-05-13T12:10:19.441Z,94642.05
2018-05-13T12:12:45.829Z,94623.50
2018-05-13T12:15:12.276Z,94623.38
2018-05-13T12:17:38.544Z,94633.42
2018-05-13T12:20:04.891Z,94631.30
2018-05-13T12:22:31.212Z,94627.30
2018-05-13T12:24:57.578Z,94635.81
2018-05-13T12:27:24.017Z,94617.34
2018-05-13T12:29:50.374Z,94637.45
2018-05-13T12:32:16.709Z,94611.36
2018-05-13T12:34:43.136Z,94615.64
2018-05-13T12:37:09.541Z,94620.53
2018-05-13T12:39:35.876Z,94624.20
2018-05-13T12:42:02.407Z,94626.10
2018-05-13T12:44:28.748Z,94601.33
2018-05-13T12:46:55.145Z,94598.18
2018-05-13T12:49:21.484Z,94584.63
2018-05-13T12:51:47.814Z,94596.27
2018-05-13T12:54:14.208Z,94580.36
2018-05-13T12:56:40.576Z,94585.47
2018-05-13T12:59:06.945Z,94562.84
2018-05-13T13:01:33.275Z,94553.52
2018-05-13T13:03:59.648Z,94561.33
2018-05-13T13:06:26.025Z,94563.51
2018-05-13T13:08:52.352Z,94554.41
2018-05-13T13:11:18.709Z,94543.91
2018-05-13T13:13:45.138Z,94546.50
2018-05-13T13:16:11.503Z,94548.55
2018-05-13T13:18:37.859Z,94554.19
2018-05-13T13:21:04.225Z,94540.32
2018-05-13T13:23:30.588Z,94541.67
2018-05-13T13:25:56.994Z,94489.23
2018-05-13T13:28:23.391Z,94551.06
2018-05-13T13:30:49.737Z,94537.84
2018-05-13T13:33:16.120Z,94550.03
2018-05-13T13:35:42.479Z,94537.52
2018-05-13T13:38:08.853Z,94536.70
2018-05-13T13:40:35.183Z,94526.81
2018-05-13T13:43:01.559Z,94519.76
2018-05-13T13:45:27.939Z,94517.17
2018-05-13T13:47:54.269Z,94523.88
2018-05-13T13:50:20.631Z,94523.19
2018-05-13T13:52:46.964Z,94517.61
2018-05-13T13:55:13.309Z,94518.72
2018-05-13T13:57:39.630Z,94518.50
2018-05-13T14:00:05.958Z,94504.10
2018-05-13T14:02:32.320Z,94525.36
2018-05-13T14:04:58.706Z,94528.23
2018-05-13T14:07:25.089Z,94532.45
2018-05-13T14:09:51.426Z,94533.17
2018-05-13T14:12:17.764Z,94539.31
2018-05-13T14:14:44.135Z,94543.03
2018-05-13T14:17:10.507Z,94541.02
2018-05-13T14:19:36.925Z,94538.97
2018-05-13T14:22:03.304Z,94529.98
2018-05-13T14:24:29.652Z,94536.67
2018-05-13T14:26:56.078Z,94538.63
2018-05-13T14:29:22.481Z,94535.50
2018-05-13T14:31:48.841Z,94533.05
2018-05-13T14:34:15.232Z,94531.22
2018-05-13T14:36:41.684Z,94535.28
2018-05-13T14:39:12.125Z,94532.52
2018-05-13T14:41:34.401Z,94525.11
2018-05-13T14:44:00.780Z,94518.56
2018-05-13T14:46:27.112Z,94520.30
2018-05-13T14:48:53.484Z,94516.07
2018-05-13T14:51:19.816Z,94495.16
2018-05-13T14:53:46.188Z,94507.22
2018-05-13T14:56:12.510Z,94508.10
2018-05-13T14:58:38.874Z,94497.71
2018-05-13T15:03:37.704Z,94497.58
2018-05-13T15:06:04.087Z,94504.04
2018-05-13T15:08:30.468Z,94496.70
2018-05-13T15:10:56.824Z,94492.64
2018-05-13T15:13:23.274Z,94504.45
2018-05-13T15:15:49.741Z,94505.20
2018-05-13T15:18:16.068Z,94499.85
2018-05-13T15:20:42.530Z,94500.38
2018-05-13T15:23:08.865Z,94499.09
2018-05-13T15:25:35.198Z,94496.04
2018-05-13T15:28:01.564Z,94496.73
2018-05-13T15:30:27.938Z,94496.86
2018-05-13T15:32:54.288Z,94504.48
2018-05-13T15:35:20.624Z,94502.49
2018-05-13T15:37:47.025Z,94506.30
2018-05-13T15:40:13.391Z,94509.16
2018-05-13T15:42:39.850Z,94498.39
2018-05-13T15:45:06.123Z,94512.09
2018-05-13T15:47:32.492Z,94520.59
2018-05-13T15:49:58.820Z,94509.10
2018-05-13T15:52:25.260Z,94516.84
2018-05-13T15:54:51.611Z,94517.82
2018-05-13T15:57:18.018Z,94512.38
2018-05-13T15:59:44.372Z,94514.95
2018-05-13T16:02:10.796Z,94514.14
2018-05-13T16:04:37.201Z,94517.95
2018-05-13T16:07:03.684Z,94492.64
2018-05-13T16:09:30.035Z,94510.61
2018-05-13T16:11:56.392Z,94511.77
2018-05-13T16:14:22.743Z,94511.70
2018-05-13T16:16:49.084Z,94512.52
2018-05-13T16:19:15.468Z,94527.66
2018-05-13T16:21:41.838Z,94517.30
2018-05-13T16:24:08.236Z,94544.59
2018-05-13T16:26:34.581Z,94529.59
2018-05-13T16:29:00.920Z,94537.13
2018-05-13T16:31:27.242Z,94549.22
2018-05-13T16:33:53.611Z,94556.80
2018-05-13T16:36:20.000Z,94573.58
2018-05-13T16:38:46.396Z,94568.70
2018-05-13T16:41:12.759Z,94566.20
2018-05-13T16:43:39.085Z,94557.05
2018-05-13T16:46:05.488Z,94563.81
2018-05-13T16:48:31.829Z,94561.45
2018-05-13T16:50:58.164Z,94558.10
2018-05-13T16:53:24.518Z,94559.77
2018-05-13T16:55:50.912Z,94564.78
2018-05-13T16:58:17.231Z,94554.59
2018-05-13T17:00:43.575Z,94553.91
2018-05-13T17:03:09.914Z,94538.03
2018-05-13T17:05:36.245Z,94561.39
2018-05-13T17:08:02.601Z,94559.61
2018-05-13T17:10:28.941Z,94567.08
2018-05-13T17:12:55.312Z,94571.83
2018-05-13T17:15:21.653Z,94579.92
2018-05-13T17:17:48.038Z,94590.45
2018-05-13T17:20:14.365Z,94593.16
2018-05-13T17:22:40.708Z,94605.04
2018-05-13T17:25:07.136Z,94606.62
2018-05-13T17:27:33.516Z,94608.03
2018-05-13T17:29:59.903Z,94609.44
2018-05-13T17:32:26.246Z,94610.73
2018-05-13T17:34:52.648Z,94590.13
2018-05-13T17:37:19.018Z,94613.94
2018-05-13T17:39:45.400Z,94622.23
2018-05-13T17:42:11.763Z,94618.98
2018-05-13T17:44:38.157Z,94628.80
2018-05-13T17:47:04.526Z,94604.87
2018-05-13T17:49:30.898Z,94614.16
2018-05-13T17:51:57.292Z,94607.84
2018-05-13T17:54:23.675Z,94621.22
2018-05-13T17:56:50.063Z,94619.67
2018-05-13T17:59:16.391Z,94616.67
2018-05-13T18:01:42.768Z,94597.05
2018-05-13T18:04:09.094Z,94611.46
2018-05-13T18:06:35.452Z,94608.94
2018-05-13T18:09:01.778Z,94604.11
2018-05-13T18:11:28.119Z,94605.40
2018-05-13T18:13:54.448Z,94605.88
2018-05-13T18:16:20.830Z,94603.89
2018-05-13T18:18:47.145Z,94625.83
2018-05-13T18:21:13.469Z,94634.19
2018-05-13T18:23:39.805Z,94621.53
2018-05-13T18:26:06.137Z,94629.47
2018-05-13T18:28:32.504Z,94636.48
2018-05-13T18:30:58.946Z,94639.99
2018-05-13T18:33:25.283Z,94637.14
2018-05-13T18:35:51.613Z,94634.25
2018-05-13T18:38:17.932Z,94629.67
2018-05-13T18:40:44.260Z,94634.42
2018-05-13T18:43:10.584Z,94610.32
2018-05-13T18:45:36.904Z,94636.19
2018-05-13T18:48:03.221Z,94621.66
2018-05-13T18:50:29.556Z,94629.53
2018-05-13T18:52:55.913Z,94619.95
2018-05-13T18:55:22.232Z,94601.27
2018-05-13T18:57:48.556Z,94606.72
2018-05-13T19:00:14.946Z,94604.43
2018-05-13T19:02:41.279Z,94596.78
2018-05-13T19:05:07.609Z,94604.28
2018-05-13T19:07:33.980Z,94606.24
2018-05-13T19:10:00.306Z,94614.19
2018-05-13T19:12:26.738Z,94595.62
2018-05-13T19:14:53.051Z,94611.61
2018-05-13T19:17:19.380Z,94606.37
2018-05-13T19:19:45.708Z,94593.41
2018-05-13T19:22:12.089Z,94587.83
2018-05-13T19:24:38.481Z,94584.52
2018-05-13T19:27:04.796Z,94579.63
2018-05-13T19:29:31.158Z,94592.05
2018-05-13T19:31:57.520Z,94588.44
2018-05-13T19:34:23.872Z,94579.80
2018-05-13T19:36:50.205Z,94594.27
2018-05-13T19:39:16.539Z,94585.95
2018-05-13T19:41:42.880Z,94591.08
2018-05-13T19:44:09.194Z,94585.72
2018-05-13T19:46:35.512Z,94597.99
2018-05-13T19:49:01.868Z,94589.12
2018-05-13T19:51:28.228Z,94589.23
2018-05-13T19:53:54.540Z,94586.72
2018-05-13T19:56:20.930Z,94588.88
2018-05-13T19:58:47.295Z,94594.66
2018-05-13T20:01:13.686Z,94604.91
2018-05-13T20:03:40.150Z,94600.63
2018-05-13T20:06:06.391Z,94595.06
2018-05-13T20:08:32.767Z,94594.92
2018-05-13T20:10:59.109Z,94596.36
2018-05-13T20:13:25.417Z,94592.05
2018-05-13T20:15:51.728Z,94611.12
2018-05-13T20:18:18.052Z,94614.16
2018-05-13T20:20:44.423Z,94615.80
2018-05-13T20:23:10.757Z,94606.02
2018-05-13T20:25:37.116Z,94609.27
2018-05-13T20:28:03.433Z,94610.56
2018-05-13T20:30:29.775Z,94606.95
2018-05-13T20:32:56.135Z,94595.13
2018-05-13T20:35:22.459Z,94597.20
2018-05-13T20:37:48.783Z,94593.52
2018-05-13T20:40:15.107Z,94594.59
2018-05-13T20:42:41.429Z,94591.75
2018-05-13T20:45:07.761Z,94593.57
2018-05-13T20:47:34.124Z,94574.06
2018-05-13T20:50:00.458Z,94585.02
2018-05-13T20:52:26.812Z,94577.58
2018-05-13T20:54:53.170Z,94588.91
2018-05-13T20:57:19.484Z,94588.30
2018-05-13T20:59:45.860Z,94591.75
2018-05-13T21:02:12.225Z,94581.30
2018-05-13T21:04:38.560Z,94589.23
2018-05-13T21:07:04.887Z,94594.33
2018-05-13T21:09:31.201Z,94587.27
2018-05-13T21:11:57.585Z,94585.36
2018-05-13T21:14:23.938Z,94597.37
2018-05-13T21:16:50.308Z,94606.53
2018-05-13T21:19:16.671Z,94603.40
2018-05-13T21:21:43.038Z,94606.33
2018-05-13T21:24:09.395Z,94602.58
2018-05-13T21:26:35.802Z,94606.38
2018-05-13T21:29:02.172Z,94595.25
2018-05-13T21:31:28.549Z,94602.16
2018-05-13T21:33:54.969Z,94615.72
2018-05-13T21:36:21.347Z,94618.20
2018-05-13T21:38:47.711Z,94610.27
2018-05-13T21:41:14.114Z,94611.20
2018-05-13T21:43:40.535Z,94613.71
2018-05-13T21:46:06.954Z,94621.03
2018-05-13T21:48:33.326Z,94617.58
2018-05-13T21:50:59.720Z,94603.57
2018-05-13T21:53:26.179Z,94606.80
2018-05-13T21:55:52.543Z,94603.17
2018-05-13T21:58:18.955Z,94618.09
2018-05-13T22:00:45.352Z,94611.56
2018-05-13T22:03:11.785Z,94619.69
2018-05-13T22:05:38.170Z,94621.34
2018-05-13T22:08:04.541Z,94617.27
2018-05-13T22:10:30.909Z,94623.00
2018-05-13T22:12:57.324Z,94633.91
2018-05-13T22:15:23.815Z,94629.22
2018-05-13T22:17:50.179Z,94637.32
2018-05-13T22:20:16.629Z,94647.55
2018-05-13T22:22:43.007Z,94633.70
2018-05-13T22:25:09.430Z,94648.08
2018-05-13T22:27:35.805Z,94646.06
2018-05-13T22:30:02.173Z,94649.05
2018-05-13T22:32:28.618Z,94650.80
2018-05-13T22:34:55.044Z,94646.47
2018-05-13T22:37:21.427Z,94657.30
2018-05-13T22:39:47.799Z,94658.28
2018-05-13T22:42:14.170Z,94655.02
2018-05-13T22:44:40.544Z,94661.52
2018-05-13T22:47:06.950Z,94634.73
2018-05-13T22:49:33.316Z,94651.31
2018-05-13T22:51:59.766Z,94646.47
2018-05-13T22:54:26.131Z,94647.25
2018-05-13T22:56:52.527Z,94646.98
2018-05-13T22:59:18.899Z,94642.03
2018-05-13T23:01:45.277Z,94642.77
2018-05-13T23:04:11.730Z,94642.14
2018-05-13T23:06:38.096Z,94634.48
2018-05-13T23:09:04.574Z,94643.58
2018-05-13T23:11:30.922Z,94636.84
2018-05-13T23:13:57.298Z,94627.62
2018-05-13T23:16:23.702Z,94623.08
2018-05-13T23:18:50.075Z,94620.56
2018-05-13T23:21:16.478Z,94620.11
2018-05-13T23:23:42.850Z,94623.81
2018-05-13T23:26:09.269Z,94619.53
2018-05-13T23:28:35.707Z,94618.86
2018-05-13T23:31:02.030Z,94612.16
2018-05-13T23:33:28.406Z,94618.29
2018-05-13T23:35:54.794Z,94597.44
2018-05-13T23:38:21.170Z,94611.09
2018-05-13T23:40:47.556Z,94600.38
2018-05-13T23:43:13.959Z,94614.43
2018-05-13T23:45:40.370Z,94609.80
2018-05-13T23:48:06.757Z,94603.14
2018-05-13T23:50:33.139Z,94606.03
2018-05-13T23:52:59.538Z,94598.52
2018-05-13T23:55:25.904Z,94592.66
2018-05-13T23:57:52.269Z,94605.98
